Jian Guo Hai — VRPY2 — position and weather

sailwx.info

Track history (hours):
 
Tides and Currents Weather Stations Pressure Air Temp Water Temp Dewpoint Dewpoint Depression Visibility Wind Speed Wind Dir Waves Ship Positions

Jian Guo Hai

Last reported at 2017-Nov-18 13:53 UTC. Time now 2017-Nov-18 15:36 UTC.
Position N 50°09' W 000°55'.

Length 180 m; draft 10.2 m.

Type: Cargo ship. MMSI: 477913100.

Date/timePositionNaut miles runAvg speedWind from/ knotsBaromVisibWave heightAir tempDewpointWater temp
2017-Nov-18 13:53N 50°09' W 000°55'3 9.0
2017-Nov-18 13:30N 50°08' W 001°00'510.1
2017-Nov-18 13:00N 50°07' W 001°08'510.9
2017-Nov-18 12:30N 50°06' W 001°16'611.4
2017-Nov-18 12:00N 50°04' W 001°25'612.1
2017-Nov-18 11:31N 50°02' W 001°34'612.8
2017-Nov-18 11:01N 50°01' W 001°43'713.7
2017-Nov-18 10:30N 49°59' W 001°53'714.3
2017-Nov-18 10:00N 49°57' W 002°04'4215.0
2017-Nov-18 07:14N 49°45' W 003°06'315.0
2017-Nov-18 07:00N 49°43' W 003°10'1014.9
2017-Nov-18 06:19N 49°37' W 003°24'914.7
2017-Nov-18 05:43N 49°33' W 003°36'514.8
2017-Nov-18 05:25N 49°31' W 003°42'715.0
2017-Nov-18 04:57N 49°27' W 003°51'915.0
2017-Nov-18 04:21N 49°22' W 004°03'614.9
2017-Nov-18 03:57N 49°19' W 004°10'814.8
2017-Nov-18 03:26N 49°15' W 004°20'614.7
2017-Nov-18 03:00N 49°12' W 004°29'814.7
2017-Nov-18 02:27N 49°08' W 004°39'714.5
2017-Nov-18 01:59N 49°04' W 004°48'713.9
2017-Nov-18 01:31N 49°01' W 004°57'4 7.8
2017-Nov-18 01:01N 48°58' W 005°01'4 7.3
2017-Nov-18 00:30N 48°58' W 005°07'1 3.0
2017-Nov-18 00:01N 48°57' W 005°09'1 1.8
2017-Nov-17 23:30N 48°56' W 005°09'2 4.6
2017-Nov-17 23:00N 48°55' W 005°12'5 9.7
2017-Nov-17 22:30N 48°52' W 005°18'4 8.7
2017-Nov-17 22:00N 48°50' W 005°24'5 9.7
2017-Nov-17 21:29N 48°47' W 005°30'611.0
2017-Nov-17 20:56N 48°43' W 005°37'511.1
2017-Nov-17 20:30N 48°39' W 005°41'610.9
2017-Nov-17 19:59N 48°34' W 005°46'611.3
2017-Nov-17 19:26N 48°29' W 005°51'911.5
2017-Nov-17 18:37N 48°20' W 005°57'1512.0
2017-Nov-17 17:20N 48°07' W 006°08'1312.4
2017-Nov-17 16:19N 47°56' W 006°17'2613.2
2017-Nov-17 14:23N 47°33' W 006°35'2513.0
2017-Nov-17 12:29N 47°11' W 006°52'46912.5
2017-Nov-15 22:53N 39°41' W 009°51'512.9
2017-Nov-15 22:30N 39°36' W 009°51'612.8
2017-Nov-15 22:00N 39°30' W 009°51'613.0
2017-Nov-15 21:30N 39°23' W 009°51'713.3
2017-Nov-15 21:00N 39°17' W 009°51'713.4
2017-Nov-15 20:30N 39°10' W 009°51'713.4
2017-Nov-15 20:00N 39°03' W 009°51'713.2
2017-Nov-15 19:30N 38°57' W 009°51'713.3
2017-Nov-15 19:00N 38°50' W 009°51'713.3
2017-Nov-15 18:30N 38°43' W 009°51'612.9
2017-Nov-15 18:00N 38°37' W 009°49'612.9
2017-Nov-15 17:30N 38°31' W 009°48'713.0
2017-Nov-15 17:00N 38°24' W 009°46'612.8
2017-Nov-15 16:30N 38°18' W 009°44'612.7
2017-Nov-15 16:00N 38°12' W 009°42'613.0
2017-Nov-15 15:30N 38°05' W 009°41'713.2
2017-Nov-15 15:00N 37°59' W 009°39'713.3
2017-Nov-15 14:30N 37°53' W 009°37'713.2
2017-Nov-15 14:00N 37°46' W 009°35'713.1
2017-Nov-15 13:30N 37°40' W 009°33'22212.1
2017-Nov-14 19:11N 36°01' W 005°25'5 0.9
2017-Nov-14 12:56N 36°06' W 005°22'3 3.6
2017-Nov-14 12:04N 36°05' W 005°18'1 8.6
2017-Nov-14 12:00N 36°05' W 005°17'2 4.4
2017-Nov-14 11:31N 36°05' W 005°15'  
2017-Nov-11 04:48N 36°31' E 014°23'411.6
2017-Nov-11 04:30N 36°30' E 014°28'611.6
2017-Nov-11 03:59N 36°30' E 014°35'611.9
2017-Nov-11 03:28N 36°29' E 014°43'43812.3
2017-Nov-09 15:55N 37°07' E 023°48'4513.5
2017-Nov-09 12:37N 37°44' E 024°19'  
Track history (hours):
 
Tides and Currents Weather Stations Pressure Air Temp Water Temp Dewpoint Dewpoint Depression Visibility Wind Speed Wind Dir Waves Ship Positions

Jian Guo Hai

Last reported at 2017-Nov-18 13:53 UTC. Time now 2017-Nov-18 15:36 UTC.
Position N 50°09' W 000°55'.

Length 180 m; draft 10.2 m.

Type: Cargo ship. MMSI: 477913100.

Date/timePositionNaut miles runAvg speedWind from/ knotsBaromVisibWave heightAir tempDewpointWater temp
2017-Nov-18 13:53N 50°09' W 000°55'3 9.0
2017-Nov-18 13:30N 50°08' W 001°00'510.1
2017-Nov-18 13:00N 50°07' W 001°08'510.9
2017-Nov-18 12:30N 50°06' W 001°16'611.4
2017-Nov-18 12:00N 50°04' W 001°25'612.1
2017-Nov-18 11:31N 50°02' W 001°34'612.8
2017-Nov-18 11:01N 50°01' W 001°43'713.7
2017-Nov-18 10:30N 49°59' W 001°53'714.3
2017-Nov-18 10:00N 49°57' W 002°04'4215.0
2017-Nov-18 07:14N 49°45' W 003°06'315.0
2017-Nov-18 07:00N 49°43' W 003°10'1014.9
2017-Nov-18 06:19N 49°37' W 003°24'914.7
2017-Nov-18 05:43N 49°33' W 003°36'514.8
2017-Nov-18 05:25N 49°31' W 003°42'715.0
2017-Nov-18 04:57N 49°27' W 003°51'915.0
2017-Nov-18 04:21N 49°22' W 004°03'614.9
2017-Nov-18 03:57N 49°19' W 004°10'814.8
2017-Nov-18 03:26N 49°15' W 004°20'614.7
2017-Nov-18 03:00N 49°12' W 004°29'814.7
2017-Nov-18 02:27N 49°08' W 004°39'714.5
2017-Nov-18 01:59N 49°04' W 004°48'713.9
2017-Nov-18 01:31N 49°01' W 004°57'4 7.8
2017-Nov-18 01:01N 48°58' W 005°01'4 7.3
2017-Nov-18 00:30N 48°58' W 005°07'1 3.0
2017-Nov-18 00:01N 48°57' W 005°09'1 1.8
2017-Nov-17 23:30N 48°56' W 005°09'2 4.6
2017-Nov-17 23:00N 48°55' W 005°12'5 9.7
2017-Nov-17 22:30N 48°52' W 005°18'4 8.7
2017-Nov-17 22:00N 48°50' W 005°24'5 9.7
2017-Nov-17 21:29N 48°47' W 005°30'611.0
2017-Nov-17 20:56N 48°43' W 005°37'511.1
2017-Nov-17 20:30N 48°39' W 005°41'610.9
2017-Nov-17 19:59N 48°34' W 005°46'611.3
2017-Nov-17 19:26N 48°29' W 005°51'911.5
2017-Nov-17 18:37N 48°20' W 005°57'1512.0
2017-Nov-17 17:20N 48°07' W 006°08'1312.4
2017-Nov-17 16:19N 47°56' W 006°17'2613.2
2017-Nov-17 14:23N 47°33' W 006°35'2513.0
2017-Nov-17 12:29N 47°11' W 006°52'46912.5
2017-Nov-15 22:53N 39°41' W 009°51'512.9
2017-Nov-15 22:30N 39°36' W 009°51'612.8
2017-Nov-15 22:00N 39°30' W 009°51'613.0
2017-Nov-15 21:30N 39°23' W 009°51'713.3
2017-Nov-15 21:00N 39°17' W 009°51'713.4
2017-Nov-15 20:30N 39°10' W 009°51'713.4
2017-Nov-15 20:00N 39°03' W 009°51'713.2
2017-Nov-15 19:30N 38°57' W 009°51'713.3
2017-Nov-15 19:00N 38°50' W 009°51'713.3
2017-Nov-15 18:30N 38°43' W 009°51'612.9
2017-Nov-15 18:00N 38°37' W 009°49'612.9
2017-Nov-15 17:30N 38°31' W 009°48'713.0
2017-Nov-15 17:00N 38°24' W 009°46'612.8
2017-Nov-15 16:30N 38°18' W 009°44'612.7
2017-Nov-15 16:00N 38°12' W 009°42'613.0
2017-Nov-15 15:30N 38°05' W 009°41'713.2
2017-Nov-15 15:00N 37°59' W 009°39'713.3
2017-Nov-15 14:30N 37°53' W 009°37'713.2
2017-Nov-15 14:00N 37°46' W 009°35'713.1
2017-Nov-15 13:30N 37°40' W 009°33'22212.1
2017-Nov-14 19:11N 36°01' W 005°25'5 0.9
2017-Nov-14 12:56N 36°06' W 005°22'3 3.6
2017-Nov-14 12:04N 36°05' W 005°18'1 8.6
2017-Nov-14 12:00N 36°05' W 005°17'2 4.4
2017-Nov-14 11:31N 36°05' W 005°15'  
2017-Nov-11 04:48N 36°31' E 014°23'411.6
2017-Nov-11 04:30N 36°30' E 014°28'611.6
2017-Nov-11 03:59N 36°30' E 014°35'611.9
2017-Nov-11 03:28N 36°29' E 014°43'43812.3
2017-Nov-09 15:55N 37°07' E 023°48'4513.5
2017-Nov-09 12:37N 37°44' E 024°19'  

Dump ship's entire track history